createdAt,value
2018-10-01T00:03:35.806Z,61.7
2018-10-01T00:08:32.068Z,61.6
2018-10-01T00:13:28.959Z,61.6
2018-10-01T00:18:25.360Z,61.6
2018-10-01T00:23:21.828Z,61.6
2018-10-01T00:28:18.129Z,61.7
2018-10-01T00:33:14.421Z,61.8
2018-10-01T00:38:10.377Z,62.1
2018-10-01T00:43:06.635Z,62.2
2018-10-01T00:48:02.981Z,62.2
2018-10-01T00:52:59.170Z,62.2
2018-10-01T00:57:55.721Z,62.4
2018-10-01T01:02:52.372Z,62.4
2018-10-01T01:07:48.804Z,62.3
2018-10-01T01:12:45.044Z,62.3
2018-10-01T01:17:41.563Z,62.3
2018-10-01T01:22:38.119Z,62.4
2018-10-01T01:27:34.626Z,61.9
2018-10-01T01:32:30.748Z,62.4
2018-10-01T01:37:27.541Z,62.2
2018-10-01T01:42:23.643Z,62.2
2018-10-01T01:47:20.047Z,62.1
2018-10-01T01:52:16.958Z,62
2018-10-01T01:57:13.364Z,62.6
2018-10-01T02:02:09.813Z,62.4
2018-10-01T02:07:06.040Z,62.3
2018-10-01T02:12:02.266Z,62.6
2018-10-01T02:16:58.132Z,62.9
2018-10-01T02:21:54.353Z,62.7
2018-10-01T02:26:50.493Z,62.7
2018-10-01T02:31:47.249Z,62.6
2018-10-01T02:36:43.583Z,62.7
2018-10-01T02:41:40.004Z,63.2
2018-10-01T02:46:36.379Z,62.7
2018-10-01T02:51:32.719Z,62.8
2018-10-01T02:56:29.032Z,62.8
2018-10-01T03:01:25.295Z,62.9
2018-10-01T03:06:22.053Z,62.9
2018-10-01T03:11:18.160Z,62.8
2018-10-01T03:16:14.279Z,62.9
2018-10-01T03:21:10.439Z,62.9
2018-10-01T03:26:07.506Z,62.8
2018-10-01T03:31:03.686Z,62.9
2018-10-01T03:36:00.318Z,63
2018-10-01T03:40:56.192Z,63.3
2018-10-01T03:45:52.490Z,63.1
2018-10-01T03:50:48.952Z,63
2018-10-01T03:55:45.658Z,63.1
2018-10-01T04:00:42.306Z,63.2
2018-10-01T04:05:38.963Z,63.4
2018-10-01T04:10:35.294Z,63.5
2018-10-01T04:15:31.724Z,63.1
2018-10-01T04:20:28.138Z,62.9
2018-10-01T04:25:24.322Z,62.9
2018-10-01T04:30:21.073Z,63
2018-10-01T04:35:17.313Z,62.8
2018-10-01T04:40:13.807Z,62.8
2018-10-01T04:45:10.248Z,62.9
2018-10-01T04:50:06.485Z,63.1
2018-10-01T04:55:01.219Z,62.9
2018-10-01T04:59:56.365Z,62.9
2018-10-01T05:04:53.330Z,63
2018-10-01T05:09:49.562Z,62.9
2018-10-01T05:14:45.622Z,63
2018-10-01T05:19:41.823Z,63.1
2018-10-01T05:24:38.538Z,62.8
2018-10-01T05:29:34.713Z,63
2018-10-01T05:34:30.992Z,62.9
2018-10-01T05:39:27.304Z,63
2018-10-01T05:44:22.720Z,63.2
2018-10-01T05:49:19.040Z,63.2
2018-10-01T05:54:15.608Z,63.2
2018-10-01T05:59:12.095Z,63
2018-10-01T06:04:08.200Z,63
2018-10-01T06:09:04.541Z,63.2
2018-10-01T06:14:01.039Z,63.2
2018-10-01T06:18:56.450Z,63.1
2018-10-01T06:23:52.597Z,63
2018-10-01T06:28:48.849Z,63.3
2018-10-01T06:33:44.798Z,63.1
2018-10-01T06:38:41.597Z,63.2
2018-10-01T06:43:36.531Z,63.2
2018-10-01T06:48:32.744Z,63.4
2018-10-01T06:53:30.163Z,63.5
2018-10-01T06:58:26.093Z,63.3
2018-10-01T07:03:24.178Z,63.1
2018-10-01T07:08:20.354Z,62.9
2018-10-01T07:13:16.949Z,63
2018-10-01T07:18:13.227Z,62.8
2018-10-01T07:23:09.814Z,63
2018-10-01T07:28:06.376Z,62.7
2018-10-01T07:33:05.919Z,62.8
2018-10-01T07:38:01.401Z,62.7
2018-10-01T07:43:01.857Z,62.4
2018-10-01T07:47:57.085Z,62.3
2018-10-01T07:52:53.749Z,62.2
2018-10-01T07:57:49.520Z,62
2018-10-01T08:02:46.155Z,62.1
2018-10-01T08:07:42.348Z,61.8
2018-10-01T08:12:38.563Z,61.7
2018-10-01T08:17:35.141Z,61.7
2018-10-01T08:22:31.384Z,61.6
2018-10-01T08:27:27.800Z,61.3
2018-10-01T08:32:24.242Z,61.1
2018-10-01T08:37:20.647Z,60.8
2018-10-01T08:42:16.946Z,60.7
2018-10-01T08:47:14.647Z,60.6
2018-10-01T08:52:10.820Z,60.5
2018-10-01T08:57:06.877Z,60.2
2018-10-01T09:02:03.967Z,60
2018-10-01T09:07:00.227Z,59.6
2018-10-01T09:12:00.838Z,59.4
2018-10-01T09:16:56.262Z,59
2018-10-01T09:21:52.608Z,58.8
2018-10-01T09:26:49.179Z,58.5
2018-10-01T09:31:45.756Z,58.2
2018-10-01T09:36:42.037Z,58.1
2018-10-01T09:41:38.413Z,57.7
2018-10-01T09:46:35.084Z,57.3
2018-10-01T09:51:32.103Z,57.2
2018-10-01T09:56:28.500Z,56.9
2018-10-01T10:01:23.530Z,56.5
2018-10-01T10:06:19.566Z,56.4
2018-10-01T10:11:15.988Z,56.3
2018-10-01T10:16:12.687Z,56
2018-10-01T10:21:09.399Z,55.7
2018-10-01T10:26:05.974Z,55.5
2018-10-01T10:31:02.360Z,55.5
2018-10-01T10:35:58.764Z,55
2018-10-01T10:40:55.075Z,54.4
2018-10-01T10:45:51.401Z,54
2018-10-01T10:50:48.461Z,53.7
2018-10-01T10:55:45.771Z,53.4
2018-10-01T11:00:42.450Z,52.9
2018-10-01T11:05:38.893Z,52.9
2018-10-01T11:10:39.433Z,52.2
2018-10-01T11:15:34.775Z,51.9
2018-10-01T11:20:30.881Z,51.7
2018-10-01T11:25:27.633Z,51.3
2018-10-01T11:30:24.236Z,51.1
2018-10-01T11:35:21.207Z,50.5
2018-10-01T11:40:17.564Z,50.1
2018-10-01T11:45:13.863Z,49.7
2018-10-01T11:50:10.506Z,49.1
2018-10-01T11:55:07.140Z,48.3
2018-10-01T12:00:03.743Z,47.8
2018-10-01T12:05:00.301Z,47.7
2018-10-01T12:09:57.261Z,46.9
2018-10-01T12:14:53.765Z,47.3
2018-10-01T12:19:50.192Z,47.5
2018-10-01T12:24:46.676Z,46.5
2018-10-01T12:29:43.474Z,46.4
2018-10-01T12:34:39.875Z,46.4
2018-10-01T12:39:36.353Z,46.4
2018-10-01T12:44:33.412Z,46.5
2018-10-01T12:49:29.531Z,46.3
2018-10-01T12:54:25.864Z,46.3
2018-10-01T12:59:23.901Z,46.2
2018-10-01T13:04:20.031Z,46
2018-10-01T13:09:16.404Z,46
2018-10-01T13:14:12.583Z,46.2
2018-10-01T13:19:09.000Z,46.3
2018-10-01T13:24:05.349Z,46.9
2018-10-01T13:29:03.465Z,47.3
2018-10-01T13:33:59.244Z,47.7
2018-10-01T13:38:55.563Z,48.1
2018-10-01T13:43:52.464Z,48.4
2018-10-01T13:48:48.902Z,48.5
2018-10-01T13:53:45.209Z,48.6
2018-10-01T13:58:42.306Z,48.7
2018-10-01T14:03:38.105Z,48.8
2018-10-01T14:08:34.464Z,49.1
2018-10-01T14:13:31.048Z,49.3
2018-10-01T14:18:27.184Z,49.5
2018-10-01T14:23:23.590Z,49.6
2018-10-01T14:28:19.460Z,49.9
2018-10-01T14:33:16.449Z,50.1
2018-10-01T14:38:12.518Z,50.3
2018-10-01T14:43:09.169Z,50.5
2018-10-01T14:48:05.130Z,50.8
2018-10-01T14:53:01.404Z,51.2
2018-10-01T14:57:58.135Z,51.4
2018-10-01T15:02:54.473Z,51.8
2018-10-01T15:07:51.024Z,52.2
2018-10-01T15:12:47.216Z,52.5
2018-10-01T15:17:43.165Z,52.7
2018-10-01T15:22:39.439Z,52.8
2018-10-01T15:27:35.824Z,53.1
2018-10-01T15:32:32.652Z,53.3
2018-10-01T15:37:28.897Z,53.5
2018-10-01T15:42:25.793Z,53.9
2018-10-01T15:47:22.204Z,54.1
2018-10-01T15:52:19.131Z,54.3
2018-10-01T15:57:15.526Z,54.5
2018-10-01T16:02:12.060Z,55.2
2018-10-01T16:07:08.833Z,55.1
2018-10-01T16:12:05.073Z,55.3
2018-10-01T16:17:02.032Z,55.4
2018-10-01T16:21:58.026Z,55.4
2018-10-01T16:26:54.438Z,55.3
2018-10-01T16:31:51.044Z,55.1
2018-10-01T16:36:47.183Z,55.1
2018-10-01T16:41:43.355Z,55.5
2018-10-01T16:46:41.052Z,55.6
2018-10-01T16:51:37.118Z,55.8
2018-10-01T16:56:33.974Z,55.7
2018-10-01T17:01:30.386Z,55.6
2018-10-01T17:06:26.836Z,55.8
2018-10-01T17:11:23.228Z,55.6
2018-10-01T17:16:19.715Z,55.5
2018-10-01T17:21:16.124Z,55.6
2018-10-01T17:26:12.517Z,55.7
2018-10-01T17:31:08.736Z,55.7
2018-10-01T17:36:04.991Z,55.7
2018-10-01T17:41:01.522Z,55.9
2018-10-01T17:45:57.835Z,55.8
2018-10-01T17:50:54.393Z,55.8
2018-10-01T17:55:51.623Z,55.8
2018-10-01T18:00:47.825Z,55.7
2018-10-01T18:05:44.199Z,56.1
2018-10-01T18:10:40.485Z,56.3
2018-10-01T18:15:36.869Z,56.3
2018-10-01T18:20:33.267Z,56.7
2018-10-01T18:25:29.762Z,56.6
2018-10-01T18:30:25.903Z,56.8
2018-10-01T18:35:21.914Z,57.1
2018-10-01T18:40:18.132Z,56.9
2018-10-01T18:45:14.537Z,57
2018-10-01T18:50:10.704Z,57.1
2018-10-01T18:55:06.920Z,57.7
2018-10-01T19:00:03.580Z,58
2018-10-01T19:04:59.802Z,57.8
2018-10-01T19:09:55.334Z,58.2
2018-10-01T19:14:51.702Z,58.3
2018-10-01T19:19:47.864Z,58.4
2018-10-01T19:24:44.250Z,58.5
2018-10-01T19:29:40.575Z,58.9
2018-10-01T19:34:36.959Z,58.6
2018-10-01T19:39:33.319Z,58.1
2018-10-01T19:44:29.746Z,57.8
2018-10-01T19:49:25.922Z,57.9
2018-10-01T19:54:22.050Z,57.7
2018-10-01T19:59:18.456Z,57.8
2018-10-01T20:04:14.842Z,57.9
2018-10-01T20:09:12.317Z,57.9
2018-10-01T20:14:08.410Z,57.9
2018-10-01T20:19:04.959Z,58.2
2018-10-01T20:24:01.498Z,58.5
2018-10-01T20:28:58.253Z,58.6
2018-10-01T20:33:54.413Z,58.5
2018-10-01T20:38:50.849Z,58.9
2018-10-01T20:43:47.308Z,59.1
2018-10-01T20:48:43.690Z,59.4
2018-10-01T20:53:41.015Z,59.3
2018-10-01T20:58:37.389Z,59.5
2018-10-01T21:03:34.024Z,60.1
2018-10-01T21:08:30.409Z,60.2
2018-10-01T21:13:26.879Z,59.8
2018-10-01T21:18:23.582Z,59.6
2018-10-01T21:23:20.151Z,59.9
2018-10-01T21:28:16.347Z,60.2
2018-10-01T21:33:12.680Z,59.9
2018-10-01T21:38:09.072Z,59.7
2018-10-01T21:43:05.302Z,59.8
2018-10-01T21:48:01.648Z,59.7
2018-10-01T21:52:58.188Z,59.7
2018-10-01T21:57:54.786Z,59.7
2018-10-01T22:02:51.465Z,59.7
2018-10-01T22:07:48.156Z,59.9
2018-10-01T22:12:44.714Z,59.8
2018-10-01T22:17:41.074Z,59.8
2018-10-01T22:22:37.217Z,60.3
2018-10-01T22:27:33.852Z,60.5
2018-10-01T22:32:30.262Z,60.3
2018-10-01T22:37:26.590Z,60.3
2018-10-01T22:42:23.221Z,60.3
2018-10-01T22:47:19.533Z,60.8
2018-10-01T22:52:15.905Z,60.5
2018-10-01T22:57:12.225Z,60.6
2018-10-01T23:02:08.844Z,60.6
2018-10-01T23:07:05.326Z,60.3
2018-10-01T23:12:01.861Z,60.6
2018-10-01T23:16:58.038Z,60.5
2018-10-01T23:21:54.419Z,60.4
2018-10-01T23:26:50.646Z,60.7
2018-10-01T23:31:47.232Z,60.5
2018-10-01T23:36:43.682Z,60.8
2018-10-01T23:41:40.193Z,61.3
2018-10-01T23:46:36.688Z,61.3
2018-10-01T23:51:33.371Z,61.3
2018-10-01T23:56:29.757Z,61.3
